Time;durP1;ratioP1;P1;durP2;ratioP2;P2;SDS_P1;SDS_P2;PMS_P1;PMS_P2;Temp;Humidity;BMP_temperature;BMP_pressure;BME280_temperature;BME280_humidity;BME280_pressure;Samples;Min_cycle;Max_cycle;Signal;HPM_P1;HPM_P2
2022/03/24 00:01:46;;;;;;;48.85;28.80;;;;;;;10.18;48.04;102869.19;6277963;22;20008;-62
2022/03/24 00:04:12;;;;;;;47.92;26.98;;;;;;;10.12;48.34;102876.88;6277648;22;20011;-62
2022/03/24 00:06:39;;;;;;;46.28;28.98;;;;;;;10.04;48.08;102876.50;6277584;22;20019;-62
2022/03/24 00:09:04;;;;;;;49.42;28.73;;;;;;;9.87;49.30;102870.44;6277946;22;20451;-62
2022/03/24 00:11:30;;;;;;;46.53;28.60;;;;;;;9.87;49.17;102874.84;6277732;22;20389;-62
2022/03/24 00:13:58;;;;;;;51.67;27.85;;;;;;;9.95;48.76;102871.72;6277299;22;20039;-63
2022/03/24 00:16:24;;;;;;;47.72;27.75;;;;;;;9.97;48.06;102859.47;6277377;22;20011;-62
2022/03/24 00:18:50;;;;;;;50.33;26.85;;;;;;;10.01;48.73;102863.16;6277612;22;20000;-63
2022/03/24 00:21:16;;;;;;;47.10;26.95;;;;;;;9.91;49.05;102863.59;6277557;22;20010;-63
2022/03/24 00:23:45;;;;;;;45.90;27.08;;;;;;;9.86;49.43;102866.00;6277304;22;20426;-62
2022/03/24 00:26:10;;;;;;;50.25;28.20;;;;;;;9.90;48.97;102867.06;6277085;22;20056;-63
2022/03/24 00:28:36;;;;;;;46.90;28.02;;;;;;;9.87;49.32;102859.88;6277494;22;19999;-62
2022/03/24 00:31:02;;;;;;;52.65;28.13;;;;;;;9.95;48.73;102863.78;6277288;22;20003;-62
2022/03/24 00:33:28;;;;;;;47.85;27.65;;;;;;;9.83;49.68;102859.69;6277337;22;20008;-62
2022/03/24 00:35:54;;;;;;;47.97;27.35;;;;;;;9.74;49.68;102858.41;6276859;22;20047;-62
2022/03/24 00:38:23;;;;;;;48.55;27.15;;;;;;;9.62;50.24;102860.47;6277235;22;20014;-62
2022/03/24 00:40:51;;;;;;;42.45;26.60;;;;;;;9.59;49.62;102855.06;6276997;22;20374;-63
2022/03/24 00:43:17;;;;;;;49.20;26.83;;;;;;;9.66;49.83;102853.63;6249746;22;20010;-63
2022/03/24 00:45:42;;;;;;;42.15;26.17;;;;;;;9.69;49.79;102848.50;6277179;22;20004;-63
2022/03/24 00:48:08;;;;;;;46.15;26.55;;;;;;;9.61;50.21;102861.31;6277219;22;20325;-63
2022/03/24 00:50:35;;;;;;;42.05;24.92;;;;;;;9.51;49.20;102851.19;6276866;22;20019;-62
2022/03/24 00:53:01;;;;;;;50.08;27.88;;;;;;;9.45;49.71;102854.41;6277257;22;20004;-63
2022/03/24 00:55:27;;;;;;;45.05;27.08;;;;;;;9.37;50.75;102845.22;6276969;22;20003;-63
2022/03/24 00:57:53;;;;;;;46.55;26.90;;;;;;;9.35;50.68;102848.63;6276922;22;20492;-63
2022/03/24 01:00:20;;;;;;;50.15;26.80;;;;;;;9.26;50.50;102838.53;6249904;22;20007;-62
2022/03/24 01:02:51;;;;;;;48.08;27.20;;;;;;;9.27;49.85;102857.06;6276941;22;19999;-63
2022/03/24 01:05:18;;;;;;;55.23;26.87;;;;;;;9.42;49.66;102848.06;6276986;22;20034;-62
2022/03/24 01:07:46;;;;;;;45.78;27.25;;;;;;;9.39;49.77;102843.56;6276684;22;20238;-62
2022/03/24 01:10:15;;;;;;;46.78;27.23;;;;;;;9.33;50.18;102838.00;6277048;22;20004;-62
2022/03/24 01:12:42;;;;;;;48.05;26.63;;;;;;;9.37;50.53;102846.97;6276708;22;19999;-62
2022/03/24 01:15:09;;;;;;;48.42;26.33;;;;;;;9.45;50.21;102845.59;6277146;22;20029;-62
2022/03/24 01:17:35;;;;;;;47.17;26.73;;;;;;;9.54;49.33;102839.00;6249567;22;20078;-62
2022/03/24 01:20:05;;;;;;;40.00;26.02;;;;;;;9.59;49.32;102836.56;6276930;22;20401;-62
2022/03/24 01:22:31;;;;;;;45.15;26.90;;;;;;;9.59;48.81;102835.69;6276720;22;20425;-62
2022/03/24 01:24:59;;;;;;;45.33;26.45;;;;;;;9.38;49.92;102838.22;6276862;22;20038;-62
2022/03/24 01:27:26;;;;;;;45.28;26.77;;;;;;;9.25;50.14;102839.38;6276590;22;20000;-63
2022/03/24 01:29:56;;;;;;;42.30;27.13;;;;;;;9.15;50.09;102839.75;6276712;22;20035;-63
2022/03/24 01:32:22;;;;;;;47.65;27.48;;;;;;;9.14;49.83;102846.75;6276744;22;20003;-62
2022/03/24 01:34:51;;;;;;;45.72;26.58;;;;;;;9.11;49.58;102836.06;6275972;22;20050;-63
2022/03/24 01:37:17;;;;;;;47.47;26.20;;;;;;;9.17;50.17;102838.09;6276305;22;20004;-63
2022/03/24 01:39:42;;;;;;;45.60;26.80;;;;;;;9.34;49.63;102825.72;6276726;22;20444;-62
2022/03/24 01:42:21;;;;;;;47.30;27.48;;;;;;;9.36;49.22;102822.31;6276438;22;20031;-62
2022/03/24 01:44:47;;;;;;;46.20;26.27;;;;;;;9.32;49.83;102825.63;6276476;22;20004;-62
2022/03/24 01:47:14;;;;;;;41.22;25.63;;;;;;;9.16;50.79;102826.63;6276601;22;20003;-62
2022/03/24 01:49:41;;;;;;;51.55;26.52;;;;;;;8.95;50.77;102815.03;6276671;22;20004;-62
2022/03/24 01:52:10;;;;;;;41.78;25.40;;;;;;;8.82;51.37;102823.16;6276340;22;20000;-62
2022/03/24 01:54:39;;;;;;;50.65;26.75;;;;;;;8.68;51.26;102807.56;6276118;22;20003;-63
2022/03/24 01:57:05;;;;;;;47.83;25.10;;;;;;;8.78;50.34;102816.88;6276434;22;19999;-62
2022/03/24 01:59:31;;;;;;;54.50;26.38;;;;;;;8.87;51.05;102813.78;6276476;22;20007;-62
2022/03/24 02:01:57;;;;;;;45.35;25.58;;;;;;;9.00;49.87;102810.91;6276548;22;20011;-62
2022/03/24 02:04:24;;;;;;;46.42;25.65;;;;;;;9.12;49.41;102810.59;6249341;22;20417;-62
2022/03/24 02:06:51;;;;;;;42.97;26.65;;;;;;;9.05;50.10;102803.22;6276479;22;20063;-62
2022/03/24 02:09:17;;;;;;;40.17;23.83;;;;;;;8.87;51.25;102805.88;6249159;22;20425;-62
2022/03/24 02:11:42;;;;;;;47.55;24.95;;;;;;;8.75;50.71;102808.81;6276603;22;20011;-62
2022/03/24 02:14:08;;;;;;;41.45;25.77;;;;;;;8.64;51.08;102808.25;6276766;22;20329;-62
2022/03/24 02:16:38;;;;;;;47.45;26.60;;;;;;;8.44;51.28;102806.38;6276795;22;20428;-62
2022/03/24 02:19:16;;;;;;;45.65;26.77;;;;;;;8.53;50.32;102807.72;6276363;22;20003;-62
2022/03/24 02:21:43;;;;;;;45.10;25.98;;;;;;;8.49;51.22;102812.75;6276156;22;20455;-61
2022/03/24 02:24:17;;;;;;;43.75;26.13;;;;;;;8.49;50.95;102808.41;6276173;22;20000;-62
2022/03/24 02:26:44;;;;;;;46.35;25.48;;;;;;;8.53;50.88;102812.09;6276288;22;20065;-62
2022/03/24 02:29:11;;;;;;;42.35;25.38;;;;;;;8.43;51.08;102813.34;6276673;22;20004;-62
2022/03/24 02:31:40;;;;;;;48.13;25.92;;;;;;;8.46;50.80;102802.97;6276406;22;19999;-62
2022/03/24 02:36:57;;;;;;;44.80;26.20;;;;;;;8.58;50.48;102810.59;6276452;22;20019;-61
2022/03/24 02:39:23;;;;;;;52.70;27.48;;;;;;;8.46;50.47;102818.78;6276684;22;20008;-61
2022/03/24 02:41:51;;;;;;;48.47;26.20;;;;;;;8.41;50.98;102817.63;6276317;22;20448;-62
2022/03/24 02:44:18;;;;;;;51.45;27.77;;;;;;;8.29;50.82;102815.22;6249284;22;20429;-61
2022/03/24 02:46:49;;;;;;;45.40;26.70;;;;;;;8.20;51.50;102814.75;6276376;22;20010;-61
2022/03/24 02:49:18;;;;;;;44.90;26.35;;;;;;;8.08;51.52;102807.94;6276381;22;20008;-62
2022/03/24 02:51:51;;;;;;;46.72;27.27;;;;;;;8.12;51.40;102812.56;6276952;22;20010;-62
2022/03/24 02:54:17;;;;;;;46.08;25.73;;;;;;;8.19;51.33;102807.69;6276209;22;20004;-62
2022/03/24 02:56:43;;;;;;;43.42;26.17;;;;;;;8.07;51.68;102806.16;6276238;22;20083;-61
2022/03/24 02:59:10;;;;;;;46.00;25.92;;;;;;;7.91;53.19;102802.69;6276599;22;20027;-61
2022/03/24 03:01:38;;;;;;;41.88;26.35;;;;;;;7.83;53.17;102805.75;6276135;22;20418;-62
2022/03/24 03:04:07;;;;;;;46.15;25.52;;;;;;;7.73;53.27;102814.88;6276476;22;20057;-61
2022/03/24 03:06:33;;;;;;;42.95;24.85;;;;;;;7.67;53.41;102817.19;6278011;22;20008;-61
2022/03/24 03:09:04;;;;;;;47.50;26.73;;;;;;;7.62;53.07;102809.03;6278121;22;20010;-61
2022/03/24 03:11:33;;;;;;;44.08;26.00;;;;;;;7.65;53.30;102811.84;6250966;22;20007;-62
2022/03/24 03:13:59;;;;;;;43.00;25.05;;;;;;;7.76;52.53;102802.81;6278217;22;20026;-62
2022/03/24 03:16:26;;;;;;;43.95;25.95;;;;;;;7.77;52.83;102811.59;6278254;22;20008;-62
2022/03/24 03:18:53;;;;;;;41.70;25.05;;;;;;;7.77;52.99;102803.69;6278354;22;19999;-62
2022/03/24 03:21:19;;;;;;;45.53;25.75;;;;;;;7.76;52.89;102796.63;6250795;22;20031;-61
2022/03/24 03:23:45;;;;;;;41.22;25.77;;;;;;;7.74;52.45;102808.78;6250797;22;20008;-61
2022/03/24 03:26:12;;;;;;;46.08;26.05;;;;;;;7.62;53.14;102802.88;6277749;22;20015;-61
2022/03/24 03:28:39;;;;;;;43.95;26.17;;;;;;;7.45;53.87;102805.50;6277910;22;20336;-61
2022/03/24 03:31:05;;;;;;;50.60;26.40;;;;;;;7.33;53.91;102799.56;6277690;22;20004;-63
2022/03/24 03:33:32;;;;;;;45.80;25.83;;;;;;;7.33;54.31;102811.81;6278193;22;20082;-62
2022/03/24 03:35:58;;;;;;;51.15;26.67;;;;;;;7.30;54.42;102806.38;6277463;22;20470;-62
2022/03/24 03:38:24;;;;;;;54.17;26.23;;;;;;;7.06;55.25;102798.91;6277873;22;20380;-61
2022/03/24 03:40:52;;;;;;;45.63;26.23;;;;;;;7.06;54.91;102814.69;6251171;22;20003;-61
2022/03/24 03:43:18;;;;;;;46.20;26.10;;;;;;;7.11;54.65;102812.31;6277815;22;20004;-62
2022/03/24 03:45:44;;;;;;;45.65;26.17;;;;;;;7.07;54.62;102810.34;6277782;22;20433;-61
2022/03/24 03:48:10;;;;;;;43.65;26.38;;;;;;;7.11;55.12;102810.63;6277664;22;20010;-61
2022/03/24 03:50:37;;;;;;;45.33;25.73;;;;;;;7.07;55.25;102816.53;6277833;22;20007;-62
2022/03/24 03:53:08;;;;;;;49.65;25.67;;;;;;;6.97;55.32;102807.19;6277658;22;20007;-62
2022/03/24 03:55:38;;;;;;;44.43;27.17;;;;;;;6.99;55.59;102808.19;6277658;22;20003;-62
2022/03/24 03:58:05;;;;;;;43.88;27.13;;;;;;;7.03;55.73;102810.19;6277549;22;20706;-61
2022/03/24 04:03:15;;;;;;;42.92;25.10;;;;;;;7.19;54.69;102811.91;6277727;22;20068;-61
2022/03/24 04:05:41;;;;;;;47.97;25.65;;;;;;;7.16;53.96;102814.41;6250418;22;20003;-62
2022/03/24 04:08:09;;;;;;;44.83;25.52;;;;;;;7.19;54.48;102818.91;6277469;22;20007;-61
2022/03/24 04:10:35;;;;;;;43.95;25.65;;;;;;;7.15;54.47;102824.81;6277640;22;20004;-61
2022/03/24 04:13:00;;;;;;;45.20;26.35;;;;;;;7.10;54.83;102821.03;6277640;22;20027;-61
2022/03/24 04:15:26;;;;;;;41.92;26.00;;;;;;;7.12;55.09;102817.69;6276993;22;20306;-61
2022/03/24 04:17:52;;;;;;;47.75;26.67;;;;;;;7.08;55.27;102812.16;6277377;22;20004;-61
2022/03/24 04:20:23;;;;;;;50.97;25.67;;;;;;;7.13;54.85;102816.84;6277455;22;20376;-62
2022/03/24 04:22:50;;;;;;;52.97;26.48;;;;;;;7.14;54.21;102818.66;6277286;22;20131;-62
2022/03/24 04:25:17;;;;;;;46.15;26.45;;;;;;;7.11;53.91;102810.63;6277366;22;20027;-61
2022/03/24 04:27:43;;;;;;;46.53;25.35;;;;;;;7.05;54.71;102817.25;6277643;22;20015;-61
2022/03/24 04:30:12;;;;;;;47.25;25.85;;;;;;;7.07;54.98;102815.63;6276669;22;20409;-61
2022/03/24 04:32:40;;;;;;;45.08;24.50;;;;;;;7.12;54.38;102816.78;6277022;22;20011;-61
2022/03/24 04:35:07;;;;;;;43.00;25.05;;;;;;;7.17;54.00;102821.47;6277255;22;20016;-61
2022/03/24 04:37:33;;;;;;;43.22;24.52;;;;;;;7.21;54.20;102822.53;6291233;22;20037;-62
2022/03/24 04:39:59;;;;;;;40.05;24.48;;;;;;;7.16;54.09;102809.16;6286954;22;20000;-61
2022/03/24 04:42:24;;;;;;;48.90;24.73;;;;;;;7.02;55.01;102808.38;6278947;22;20079;-61
2022/03/24 04:44:50;;;;;;;40.60;24.77;;;;;;;6.89;55.84;102812.81;6277638;22;20007;-61
2022/03/24 04:47:15;;;;;;;43.22;24.30;;;;;;;6.81;55.60;102815.03;6277432;22;20487;-61
2022/03/24 04:49:41;;;;;;;47.28;25.27;;;;;;;6.79;56.02;102821.91;6277207;22;20483;-61
2022/03/24 04:52:09;;;;;;;46.67;24.10;;;;;;;6.75;56.09;102815.56;6276957;22;20053;-61
2022/03/24 04:54:35;;;;;;;45.55;24.98;;;;;;;6.71;56.26;102820.56;6277095;22;20024;-61
2022/03/24 04:57:00;;;;;;;42.47;24.20;;;;;;;6.69;56.28;102819.56;6277356;22;20018;-61
2022/03/24 04:59:26;;;;;;;47.47;26.38;;;;;;;6.68;56.10;102825.63;6276943;22;20518;-61
2022/03/24 05:01:52;;;;;;;46.28;25.15;;;;;;;6.71;55.73;102816.19;6276976;22;20325;-61
2022/03/24 05:04:17;;;;;;;44.53;25.30;;;;;;;6.72;56.46;102817.09;6277027;22;19999;-61
2022/03/24 05:06:43;;;;;;;43.47;24.65;;;;;;;6.76;56.10;102824.34;6277213;22;20065;-61
2022/03/24 05:09:08;;;;;;;44.15;25.15;;;;;;;6.86;55.26;102818.81;6277023;22;19999;-62
2022/03/24 05:11:35;;;;;;;48.88;25.67;;;;;;;6.97;55.36;102817.69;6276999;22;20004;-61
2022/03/24 05:14:01;;;;;;;43.70;24.95;;;;;;;7.02;54.78;102821.53;6276820;22;20379;-62
2022/03/24 05:16:27;;;;;;;46.05;24.33;;;;;;;6.97;55.02;102816.78;6279438;22;20008;-61
2022/03/24 05:18:54;;;;;;;40.50;24.65;;;;;;;6.89;54.84;102818.06;6281388;22;20003;-61
2022/03/24 05:21:20;;;;;;;45.25;25.45;;;;;;;6.89;55.30;102823.31;6278421;22;20031;-60
2022/03/24 05:23:45;;;;;;;49.75;25.17;;;;;;;6.85;55.15;102830.16;6249851;22;20010;-61
2022/03/24 05:26:11;;;;;;;43.65;24.92;;;;;;;6.79;55.29;102821.91;6277016;22;20329;-61
2022/03/24 05:28:37;;;;;;;45.42;24.77;;;;;;;6.77;56.19;102828.81;6276364;22;20011;-61
2022/03/24 05:31:02;;;;;;;40.85;23.67;;;;;;;6.73;56.19;102829.44;6275691;22;20425;-61
2022/03/24 05:33:28;;;;;;;45.70;23.45;;;;;;;6.68;56.40;102828.25;6276103;22;20421;-61
2022/03/24 05:35:53;;;;;;;38.88;22.52;;;;;;;6.66;56.84;102833.41;6275130;22;20047;-61
2022/03/24 05:38:19;;;;;;;42.10;24.98;;;;;;;6.67;56.48;102832.59;6276458;22;20008;-60
2022/03/24 05:40:45;;;;;;;41.28;24.33;;;;;;;6.61;56.34;102829.63;6275825;22;20358;-61
2022/03/24 05:43:10;;;;;;;41.55;23.40;;;;;;;6.57;56.98;102829.34;6276231;22;20448;-61
2022/03/24 05:45:36;;;;;;;43.80;23.55;;;;;;;6.56;57.75;102828.47;6275488;22;20094;-61
2022/03/24 05:48:02;;;;;;;44.65;23.70;;;;;;;6.57;57.11;102832.88;6276224;22;20532;-61
2022/03/24 05:50:29;;;;;;;39.17;24.27;;;;;;;6.56;56.98;102835.44;6275754;22;20004;-61
2022/03/24 05:52:55;;;;;;;43.25;24.58;;;;;;;6.50;57.09;102828.06;6276042;22;20445;-62
2022/03/24 05:55:23;;;;;;;42.72;25.35;;;;;;;6.50;57.30;102834.22;6275928;22;20079;-61
2022/03/24 05:57:49;;;;;;;41.97;23.85;;;;;;;6.51;57.03;102843.94;6275625;22;20003;-62
2022/03/24 06:00:15;;;;;;;46.22;24.52;;;;;;;6.50;57.49;102842.09;6275773;22;20053;-62
2022/03/24 06:02:41;;;;;;;43.13;24.25;;;;;;;6.58;57.52;102845.19;6275385;22;20079;-62
2022/03/24 06:05:12;;;;;;;41.97;24.98;;;;;;;6.63;57.16;102838.47;6275740;22;20004;-62
2022/03/24 06:07:38;;;;;;;45.47;24.33;;;;;;;6.75;56.68;102843.56;6275484;22;20004;-61
2022/03/24 06:10:04;;;;;;;40.15;24.42;;;;;;;6.87;56.68;102839.03;6275732;22;20467;-62
2022/03/24 06:12:31;;;;;;;44.55;25.15;;;;;;;7.00;56.27;102844.16;6275421;22;20425;-62
2022/03/24 06:14:57;;;;;;;43.25;25.00;;;;;;;7.05;56.52;102847.06;6275684;22;20421;-62
2022/03/24 06:17:23;;;;;;;46.53;25.42;;;;;;;7.08;56.29;102846.34;6275481;22;20316;-62
2022/03/24 06:19:49;;;;;;;45.85;25.75;;;;;;;7.14;56.43;102847.56;6275694;22;20000;-62
2022/03/24 06:22:16;;;;;;;52.88;27.15;;;;;;;7.19;56.27;102855.72;6275989;22;20006;-63
2022/03/24 06:24:42;;;;;;;48.45;25.40;;;;;;;7.27;55.96;102851.81;6275718;22;20035;-62
2022/03/24 06:27:08;;;;;;;47.05;25.25;;;;;;;7.37;56.64;102854.16;6276069;22;19999;-62
2022/03/24 06:29:34;;;;;;;43.47;25.70;;;;;;;7.44;56.77;102853.66;6275558;22;20010;-62
2022/03/24 06:32:00;;;;;;;46.63;28.35;;;;;;;7.58;56.09;102846.53;6275432;22;20031;-62
2022/03/24 06:34:26;;;;;;;52.13;28.20;;;;;;;7.72;56.18;102861.34;6275433;22;20004;-62
2022/03/24 06:36:54;;;;;;;58.63;29.05;;;;;;;7.81;56.76;102850.41;6274981;22;20066;-61
2022/03/24 06:39:20;;;;;;;53.80;28.45;;;;;;;7.92;56.38;102856.25;6276329;22;20000;-62
2022/03/24 06:41:46;;;;;;;50.35;28.77;;;;;;;8.06;55.33;102855.28;6277669;22;20027;-62
2022/03/24 06:44:11;;;;;;;48.67;29.02;;;;;;;8.13;55.36;102851.22;6277570;22;20425;-62
2022/03/24 06:46:38;;;;;;;53.42;29.02;;;;;;;8.26;55.77;102858.94;6277199;22;20314;-62
2022/03/24 06:49:05;;;;;;;54.85;28.38;;;;;;;8.36;55.01;102855.97;6277527;22;20011;-62
2022/03/24 06:51:31;;;;;;;52.70;29.75;;;;;;;8.58;55.72;102857.13;6277768;22;20000;-62
2022/03/24 06:53:56;;;;;;;50.33;29.98;;;;;;;8.65;54.29;102854.88;6277383;22;20464;-62
2022/03/24 06:56:22;;;;;;;50.00;30.35;;;;;;;8.88;55.09;102855.13;6277563;22;20019;-61
2022/03/24 06:58:48;;;;;;;53.35;29.65;;;;;;;9.07;54.76;102855.19;6277663;22;20487;-62
2022/03/24 07:01:14;;;;;;;58.03;31.77;;;;;;;9.17;53.70;102856.56;6277174;22;20007;-62
2022/03/24 07:03:40;;;;;;;54.53;31.88;;;;;;;9.36;53.13;102853.06;6250296;22;20004;-62
2022/03/24 07:06:05;;;;;;;63.20;32.08;;;;;;;9.53;53.47;102852.13;6277452;22;20008;-62
2022/03/24 07:08:31;;;;;;;59.88;32.40;;;;;;;9.71;52.71;102849.44;6277845;22;20010;-62
2022/03/24 07:10:56;;;;;;;61.15;31.75;;;;;;;9.89;52.11;102852.97;6277209;22;20054;-61
2022/03/24 07:13:23;;;;;;;57.55;32.42;;;;;;;10.18;51.71;102853.34;6250220;22;20047;-62
2022/03/24 07:15:50;;;;;;;59.65;32.92;;;;;;;10.53;50.72;102855.84;6277220;22;19999;-62
2022/03/24 07:18:15;;;;;;;58.22;33.70;;;;;;;10.76;50.47;102858.56;6277094;22;20004;-62
2022/03/24 07:20:41;;;;;;;63.95;34.45;;;;;;;10.91;50.09;102860.94;6277592;22;20031;-62
2022/03/24 07:23:08;;;;;;;59.40;33.33;;;;;;;10.99;50.65;102860.41;6277198;22;20007;-62
2022/03/24 07:25:36;;;;;;;70.38;32.80;;;;;;;11.39;49.36;102872.63;6276857;22;20010;-61
2022/03/24 07:28:04;;;;;;;59.50;32.28;;;;;;;11.74;48.70;102868.72;6276463;22;20003;-62
2022/03/24 07:30:30;;;;;;;62.47;33.55;;;;;;;12.17;47.31;102867.72;6276752;22;19999;-63
2022/03/24 07:32:56;;;;;;;51.80;31.85;;;;;;;12.57;47.42;102865.56;6276891;22;20014;-62
2022/03/24 07:35:24;;;;;;;56.90;32.10;;;;;;;12.97;45.83;102866.06;6277007;22;20050;-63
2022/03/24 07:37:50;;;;;;;60.00;30.60;;;;;;;13.27;44.56;102866.22;6277425;22;20011;-62
2022/03/24 07:40:18;;;;;;;58.92;29.15;;;;;;;13.59;44.25;102858.34;6277489;22;20061;-62
2022/03/24 07:42:45;;;;;;;49.50;29.40;;;;;;;13.87;42.85;102864.47;6277136;22;20003;-62
2022/03/24 07:45:12;;;;;;;47.75;28.25;;;;;;;14.07;41.56;102865.06;6276997;22;20008;-62
2022/03/24 07:48:06;;;;;;;48.10;29.00;;;;;;;14.25;42.29;102866.47;6276905;22;20441;-62
2022/03/24 07:50:32;;;;;;;60.35;29.90;;;;;;;14.38;41.38;102865.06;6276625;22;20011;-62
2022/03/24 07:53:08;;;;;;;45.42;28.90;;;;;;;14.75;41.03;102869.66;6277215;22;20036;-62
2022/03/24 07:55:37;;;;;;;52.45;29.52;;;;;;;15.09;39.33;102867.84;6276843;22;20417;-62
2022/03/24 07:58:02;;;;;;;51.95;29.13;;;;;;;15.39;39.50;102869.44;6276958;22;20107;-62
2022/03/24 08:00:27;;;;;;;51.13;31.88;;;;;;;15.72;41.43;102877.34;6276944;22;20107;-63
2022/03/24 08:02:53;;;;;;;52.40;29.65;;;;;;;15.77;38.10;102870.34;6276981;22;20382;-62
2022/03/24 08:05:18;;;;;;;52.13;30.67;;;;;;;16.00;38.13;102874.38;6277254;22;20000;-62
2022/03/24 08:07:44;;;;;;;54.25;30.85;;;;;;;16.01;36.81;102876.16;6277255;22;20003;-62
2022/03/24 08:10:09;;;;;;;49.45;29.42;;;;;;;16.22;36.24;102878.38;6276837;22;20306;-62
2022/03/24 08:12:35;;;;;;;50.15;29.42;;;;;;;16.36;36.12;102876.00;6249387;22;20177;-63
2022/03/24 08:15:01;;;;;;;58.88;31.10;;;;;;;16.38;35.68;102871.59;6276737;22;20008;-63
2022/03/24 08:17:26;;;;;;;49.72;29.52;;;;;;;16.80;35.90;102873.28;6276795;22;20000;-62
2022/03/24 08:19:52;;;;;;;45.40;29.55;;;;;;;17.09;33.71;102881.78;6276784;22;20381;-63
2022/03/24 08:22:19;;;;;;;40.50;27.77;;;;;;;17.20;32.15;102872.16;6276692;22;20003;-63
2022/03/24 08:24:45;;;;;;;44.40;27.73;;;;;;;17.42;32.16;102877.81;6276696;22;20011;-62
2022/03/24 08:27:10;;;;;;;44.17;27.83;;;;;;;17.47;32.26;102877.03;6276674;22;20004;-62
2022/03/24 08:29:37;;;;;;;45.45;27.50;;;;;;;17.74;31.62;102875.66;6276920;22;20213;-63
2022/03/24 08:32:03;;;;;;;45.00;28.80;;;;;;;18.02;32.53;102882.25;6276470;22;20087;-62
2022/03/24 08:34:29;;;;;;;44.00;28.70;;;;;;;18.38;32.33;102879.13;6276300;22;20325;-63
2022/03/24 08:36:54;;;;;;;46.80;28.85;;;;;;;18.67;29.99;102878.50;6276195;22;20091;-62
2022/03/24 08:39:20;;;;;;;37.75;26.92;;;;;;;18.83;28.30;102880.50;6276455;22;20003;-62
2022/03/24 08:41:45;;;;;;;40.47;27.08;;;;;;;18.98;27.86;102879.75;6276562;22;19999;-63
2022/03/24 08:44:11;;;;;;;44.40;26.08;;;;;;;19.32;27.71;102874.66;6276576;22;20423;-63
2022/03/24 08:46:37;;;;;;;42.97;26.85;;;;;;;19.43;27.21;102880.94;6275816;22;20019;-63
2022/03/24 08:49:02;;;;;;;37.60;27.65;;;;;;;19.69;26.43;102878.47;6275983;22;20130;-63
2022/03/24 08:51:28;;;;;;;45.10;29.02;;;;;;;19.86;26.84;102873.19;6276603;22;20424;-62
2022/03/24 08:53:54;;;;;;;47.22;29.38;;;;;;;20.05;27.46;102876.88;6276068;22;20011;-63
2022/03/24 08:56:19;;;;;;;42.90;30.30;;;;;;;19.96;26.60;102875.94;6276415;22;20018;-62
2022/03/24 08:58:45;;;;;;;45.15;29.08;;;;;;;20.15;26.10;102876.00;6276109;22;20004;-63
2022/03/24 09:01:15;;;;;;;49.03;28.63;;;;;;;20.38;26.33;102885.00;6275620;22;20000;-63
2022/03/24 09:03:41;;;;;;;49.25;28.58;;;;;;;20.61;25.19;102879.72;6276120;22;20011;-63
2022/03/24 09:06:09;;;;;;;32.05;24.95;;;;;;;20.84;23.12;102885.09;6275976;22;20004;-63
2022/03/24 09:08:35;;;;;;;38.17;25.40;;;;;;;20.88;23.54;102878.84;6275830;22;20003;-63
2022/03/24 09:11:00;;;;;;;32.90;23.92;;;;;;;21.16;23.02;102887.81;6275807;22;20004;-63
2022/03/24 09:13:26;;;;;;;35.70;23.90;;;;;;;21.37;23.17;102883.31;6275777;22;20000;-64
2022/03/24 09:15:52;;;;;;;36.72;23.00;;;;;;;21.41;22.50;102877.03;6275804;22;20011;-62
2022/03/24 09:18:18;;;;;;;36.72;23.67;;;;;;;21.72;23.56;102886.84;6275939;22;20000;-63
2022/03/24 09:20:45;;;;;;;34.65;24.10;;;;;;;22.13;22.27;102882.22;6275813;22;20416;-62
2022/03/24 09:23:11;;;;;;;33.75;22.83;;;;;;;22.19;21.63;102882.22;6275770;22;20570;-63
2022/03/24 09:25:38;;;;;;;30.58;21.48;;;;;;;22.38;20.88;102891.97;6276118;22;20003;-62
2022/03/24 09:28:04;;;;;;;30.13;21.42;;;;;;;22.54;20.66;102887.38;6276063;22;20018;-63
2022/03/24 09:30:29;;;;;;;36.05;23.70;;;;;;;22.65;20.82;102882.78;6275790;22;20007;-63
2022/03/24 09:32:55;;;;;;;34.00;24.48;;;;;;;22.89;20.19;102887.13;6275780;22;20004;-63
2022/03/24 09:35:20;;;;;;;30.30;22.42;;;;;;;22.90;20.50;102886.22;6243133;23;20095;-63
2022/03/24 09:37:47;;;;;;;31.30;22.13;;;;;;;23.19;19.11;102879.69;6244569;22;20035;-63
2022/03/24 09:40:14;;;;;;;30.35;22.25;;;;;;;23.28;19.94;102878.72;6275794;22;20012;-63
2022/03/24 09:42:40;;;;;;;31.20;22.45;;;;;;;23.38;19.89;102889.44;6276002;22;20031;-62
2022/03/24 09:45:09;;;;;;;29.20;21.10;;;;;;;23.64;18.99;102888.22;6275910;22;20004;-63
2022/03/24 09:47:35;;;;;;;26.27;20.02;;;;;;;23.91;19.44;102892.47;6275828;22;20026;-62
2022/03/24 09:50:02;;;;;;;29.17;19.80;;;;;;;23.82;17.63;102881.78;6276010;22;20004;-62
2022/03/24 09:52:27;;;;;;;28.20;20.90;;;;;;;23.92;18.09;102886.13;6248692;22;20490;-62
2022/03/24 09:54:54;;;;;;;27.17;20.88;;;;;;;24.20;18.88;102881.28;6275888;22;20030;-63
2022/03/24 09:57:20;;;;;;;28.88;19.70;;;;;;;24.24;17.93;102888.44;6276145;22;20007;-63
2022/03/24 09:59:46;;;;;;;25.80;19.90;;;;;;;24.46;17.13;102887.22;6275767;22;20306;-63
2022/03/24 10:02:11;;;;;;;31.70;20.25;;;;;;;24.69;17.71;102889.56;6275973;22;20010;-62
2022/03/24 10:04:52;;;;;;;30.63;18.92;;;;;;;24.73;16.88;102887.72;6276208;22;20089;-63
2022/03/24 10:07:19;;;;;;;28.15;19.42;;;;;;;24.87;16.43;102877.56;6275815;22;20079;-63
2022/03/24 10:09:47;;;;;;;28.30;18.92;;;;;;;25.07;17.08;102884.47;6275771;22;20079;-63
2022/03/24 10:12:25;;;;;;;27.38;18.98;;;;;;;25.20;16.46;102880.66;6276285;22;20146;-63
2022/03/24 10:15:07;;;;;;;22.90;17.90;;;;;;;25.16;16.15;102868.97;6275268;22;20463;-62
2022/03/24 10:17:36;;;;;;;26.35;17.98;;;;;;;25.32;14.57;102871.44;6275826;22;20452;-63
2022/03/24 10:20:12;;;;;;;21.35;17.02;;;;;;;25.22;14.42;102873.38;6275828;22;20014;-62
2022/03/24 10:22:38;;;;;;;23.70;16.77;;;;;;;25.21;15.65;102867.09;6275170;22;20035;-63
2022/03/24 10:25:21;;;;;;;21.27;16.55;;;;;;;25.71;15.62;102861.63;6275455;22;20007;-62
2022/03/24 10:28:08;;;;;;;23.63;18.35;;;;;;;25.53;15.37;102865.59;6275932;22;20023;-63
2022/03/24 10:31:03;;;;;;;24.17;18.42;;;;;;;25.73;15.39;102862.47;6276147;22;20007;-63
2022/03/24 10:33:30;;;;;;;23.15;18.00;;;;;;;25.87;13.90;102865.84;6248244;22;20084;-62
2022/03/24 10:36:20;;;;;;;24.23;18.15;;;;;;;26.21;15.69;102866.00;6275249;22;20022;-63
2022/03/24 10:38:49;;;;;;;31.45;18.52;;;;;;;26.26;14.08;102863.19;6275993;22;20026;-62
2022/03/24 10:41:22;;;;;;;25.20;18.92;;;;;;;26.39;14.21;102864.69;6275865;22;20417;-64
2022/03/24 10:43:49;;;;;;;24.30;19.02;;;;;;;26.17;13.83;102868.81;6275696;22;20492;-63
2022/03/24 10:46:27;;;;;;;28.92;19.63;;;;;;;26.37;14.11;102858.38;6282148;22;20003;-62
2022/03/24 10:48:54;;;;;;;30.92;19.20;;;;;;;26.53;14.43;102858.06;6284692;22;20087;-62
2022/03/24 10:51:30;;;;;;;24.27;18.48;;;;;;;27.02;14.62;102855.00;6280953;22;19999;-63
2022/03/24 10:54:15;;;;;;;25.88;17.95;;;;;;;26.93;14.73;102855.22;6276603;22;20023;-63
2022/03/24 10:57:01;;;;;;;23.98;17.80;;;;;;;26.88;14.56;102857.19;6275551;22;20060;-63
2022/03/24 10:59:30;;;;;;;28.45;18.58;;;;;;;27.19;13.73;102860.94;6275425;22;20007;-64
2022/03/24 11:01:55;;;;;;;25.85;18.92;;;;;;;27.27;13.35;102855.25;6275446;22;20078;-62
2022/03/24 11:04:21;;;;;;;26.85;17.52;;;;;;;27.12;13.82;102848.44;6275432;22;20430;-64
2022/03/24 11:06:50;;;;;;;23.20;15.13;;;;;;;27.01;13.41;102841.47;6275803;22;20004;-64
2022/03/24 11:09:40;;;;;;;21.92;14.00;;;;;;;26.93;13.28;102861.53;6275284;22;20329;-63
2022/03/24 11:12:29;;;;;;;26.80;13.35;;;;;;;27.31;14.32;102856.97;6273953;22;20007;-63
2022/03/24 11:14:59;;;;;;;23.77;13.70;;;;;;;27.06;13.06;102853.09;6275608;22;20373;-63
2022/03/24 11:17:26;;;;;;;24.80;16.27;;;;;;;26.84;13.33;102844.63;6275379;22;19999;-63
2022/03/24 11:20:04;;;;;;;27.75;19.23;;;;;;;26.97;14.38;102856.94;6275626;22;20027;-63
2022/03/24 11:23:06;;;;;;;29.23;20.63;;;;;;;27.62;14.71;102847.94;6275360;22;20010;-63